Time;durP1;ratioP1;P1;durP2;ratioP2;P2;SDS_P1;SDS_P2;PMS_P1;PMS_P2;Temp;Humidity;BMP_temperature;BMP_pressure;BME280_temperature;BME280_humidity;BME280_pressure;Samples;Min_cycle;Max_cycle;Signal;HPM_P1;HPM_P2
2022/01/27 00:05:41;;;;;;;;;;;4.90;99.90;;;;;;5112179;27;20046;-84
2022/01/27 00:13:13;;;;;;;23.40;14.13;;;4.90;99.90;;;;;;5132847;27;20061;-85
2022/01/27 00:15:41;;;;;;;23.05;12.75;;;4.90;99.90;;;;;;5111458;27;20046;-85
2022/01/27 00:18:18;;;;;;;26.05;14.20;;;6.00;99.90;;;;;;5126375;27;20103;-84
2022/01/27 00:20:48;;;;;;;21.08;13.23;;;4.90;99.90;;;;;;5103412;27;20119;-84
2022/01/27 00:23:15;;;;;;;24.33;13.75;;;4.90;99.90;;;;;;5102060;27;20031;-84
2022/01/27 00:25:41;;;;;;;29.75;15.27;;;4.90;99.90;;;;;;5083288;27;20043;-84
2022/01/27 00:28:07;;;;;;;26.55;12.90;;;4.80;99.90;;;;;;5124163;27;20376;-84
2022/01/27 00:30:38;;;;;;;22.47;11.27;;;6.10;99.90;;;;;;5099363;27;20125;-85
2022/01/27 00:33:07;;;;;;;20.85;11.60;;;4.90;99.90;;;;;;5089828;27;20038;-84
2022/01/27 00:35:34;;;;;;;21.10;12.55;;;4.90;99.90;;;;;;5081610;28;20039;-84
2022/01/27 00:38:00;;;;;;;25.77;12.40;;;5.50;99.90;;;;;;5113640;27;20094;-84
2022/01/27 00:40:26;;;;;;;21.42;12.68;;;4.90;99.90;;;;;;5106627;27;20046;-84
2022/01/27 00:42:52;;;;;;;20.37;11.63;;;4.90;99.90;;;;;;5099212;27;20043;-85
2022/01/27 00:45:19;;;;;;;28.83;12.73;;;5.90;99.90;;;;;;5110036;27;20066;-85
2022/01/27 00:47:44;;;;;;;26.02;13.52;;;6.10;99.90;;;;;;5110371;27;20610;-84
2022/01/27 00:50:11;;;;;;;20.43;12.97;;;5.40;99.90;;;;;;5108020;27;20145;-84
2022/01/27 00:52:41;;;;;;;20.50;11.45;;;4.90;99.90;;;;;;5124163;27;20039;-84
2022/01/27 00:55:09;;;;;;;31.63;13.43;;;4.90;99.90;;;;;;5106756;27;20065;-84
2022/01/27 01:00:09;;;;;;;27.02;13.10;;;4.90;99.90;;;;;;5124727;27;20042;-84
2022/01/27 01:02:45;;;;;;;27.98;13.25;;;4.90;99.90;;;;;;5136428;27;20053;-84
2022/01/27 01:07:43;;;;;;;26.00;13.65;;;4.80;99.90;;;;;;5129983;27;20358;-84
2022/01/27 01:13:34;;;;;;;19.83;11.02;;;4.80;99.90;;;;;;5129037;27;20085;-84
2022/01/27 01:15:33;;;;;;;20.85;11.32;;;5.30;99.90;;;;;;5097245;27;20054;-84
2022/01/27 01:18:07;;;;;;;20.08;12.18;;;4.80;99.90;;;;;;5094193;27;20042;-84
2022/01/27 01:20:55;;;;;;;25.95;12.45;;;4.80;99.90;;;;;;5109887;27;20046;-84
2022/01/27 01:34:24;;;;;;;21.35;11.90;;;4.80;99.90;;;;;;5094035;27;20044;-84
2022/01/27 01:36:57;;;;;;;21.02;11.35;;;4.80;99.90;;;;;;5113424;27;20121;-84
2022/01/27 01:39:25;;;;;;;24.92;12.23;;;4.80;99.90;;;;;;5115172;27;20375;-84
2022/01/27 01:41:51;;;;;;;21.80;12.98;;;4.80;99.90;;;;;;5103133;27;20039;-84
2022/01/27 01:44:18;;;;;;;26.45;12.90;;;4.80;99.90;;;;;;5088654;27;20078;-85
2022/01/27 01:46:44;;;;;;;18.95;11.32;;;4.80;99.90;;;;;;5103398;27;20551;-85
2022/01/27 01:49:11;;;;;;;26.00;13.32;;;5.60;99.90;;;;;;5099364;27;20389;-84
2022/01/27 01:51:39;;;;;;;21.17;12.43;;;3.80;99.90;;;;;;5119321;27;20038;-84
2022/01/27 01:54:06;;;;;;;23.75;10.90;;;4.80;99.90;;;;;;5134891;27;20081;-85
2022/01/27 01:56:33;;;;;;;26.27;13.48;;;4.80;99.90;;;;;;5109820;27;20042;-84
2022/01/27 01:58:59;;;;;;;23.17;11.70;;;4.80;99.90;;;;;;5110520;27;20202;-83
2022/01/27 02:01:25;;;;;;;23.97;11.17;;;4.80;99.90;;;;;;5105307;27;21464;-84
2022/01/27 02:03:51;;;;;;;26.80;12.43;;;6.00;99.90;;;;;;5112470;27;20549;-83
2022/01/27 02:06:29;;;;;;;16.60;11.43;;;4.90;99.90;;;;;;5132814;27;20060;-84
2022/01/27 02:19:39;;;;;;;20.35;11.55;;;4.80;99.90;;;;;;5108563;27;20039;-84
2022/01/27 02:22:06;;;;;;;25.53;11.67;;;5.40;99.90;;;;;;5100562;27;20096;-84
2022/01/27 02:24:34;;;;;;;22.98;12.20;;;6.10;99.90;;;;;;5097104;27;20042;-84
2022/01/27 02:27:01;;;;;;;16.52;9.15;;;4.80;99.90;;;;;;5104734;27;20034;-84
2022/01/27 02:29:27;;;;;;;21.85;10.30;;;4.80;99.90;;;;;;5079683;27;20048;-84
2022/01/27 02:31:55;;;;;;;21.48;12.48;;;4.80;99.90;;;;;;5097321;28;20119;-84
2022/01/27 02:34:22;;;;;;;26.52;12.15;;;4.70;99.90;;;;;;5078434;27;20075;-84
2022/01/27 02:36:47;;;;;;;16.35;10.48;;;4.90;99.90;;;;;;5085769;27;20042;-84
2022/01/27 02:39:17;;;;;;;14.77;9.93;;;5.90;99.90;;;;;;5108090;27;20038;-84
2022/01/27 02:41:55;;;;;;;21.48;11.63;;;4.90;99.90;;;;;;5101539;27;20038;-84
2022/01/27 02:44:55;;;;;;;25.83;13.68;;;4.80;99.90;;;;;;5126604;27;20039;-84
2022/01/27 02:47:23;;;;;;;20.65;11.75;;;4.80;99.90;;;;;;5100599;27;20043;-85
2022/01/27 02:49:49;;;;;;;23.90;12.98;;;4.90;99.90;;;;;;5081082;28;20101;-84
2022/01/27 02:52:16;;;;;;;22.60;12.53;;;5.30;99.90;;;;;;5108769;27;20039;-85
2022/01/27 02:54:42;;;;;;;23.27;12.13;;;4.80;99.90;;;;;;5109794;27;20084;-84
2022/01/27 02:57:08;;;;;;;21.30;11.17;;;4.70;99.90;;;;;;5108800;27;20038;-84
2022/01/27 02:59:34;;;;;;;20.33;11.38;;;4.80;99.90;;;;;;5100451;27;20031;-84
2022/01/27 03:02:00;;;;;;;20.07;11.90;;;4.80;99.90;;;;;;5100928;27;20088;-84
2022/01/27 03:04:26;;;;;;;27.07;12.50;;;5.70;99.90;;;;;;5118613;27;20038;-84
2022/01/27 03:06:53;;;;;;;22.73;12.38;;;5.60;99.90;;;;;;5113411;27;20046;-84
2022/01/27 03:09:19;;;;;;;23.25;11.45;;;4.80;99.90;;;;;;5080384;27;20047;-84
2022/01/27 03:11:51;;;;;;;25.03;12.47;;;5.00;99.90;;;;;;5088622;28;20042;-84
2022/01/27 03:14:21;;;;;;;27.80;13.20;;;4.80;99.90;;;;;;5116807;27;20093;-84
2022/01/27 03:16:47;;;;;;;25.60;13.50;;;5.30;99.90;;;;;;5108565;27;20034;-84
2022/01/27 03:19:16;;;;;;;24.30;11.07;;;4.80;99.90;;;;;;5109182;27;20035;-83
2022/01/27 03:21:42;;;;;;;24.55;14.43;;;5.10;99.90;;;;;;5104425;27;20053;-84
2022/01/27 03:24:07;;;;;;;21.83;12.63;;;5.90;99.90;;;;;;5104038;27;20484;-84
2022/01/27 03:26:33;;;;;;;21.85;12.48;;;4.80;99.90;;;;;;5101087;27;20042;-84
2022/01/27 03:28:59;;;;;;;28.27;14.77;;;4.80;99.90;;;;;;5109146;27;20038;-84
2022/01/27 03:31:26;;;;;;;20.27;12.23;;;4.70;99.90;;;;;;5099391;27;20136;-84
2022/01/27 03:33:52;;;;;;;;;;;4.80;99.90;;;;;;5109278;27;20035;-85
2022/01/27 03:36:18;;;;;;;26.05;12.20;;;4.70;99.90;;;;;;5134153;27;19922;-85
2022/01/27 03:38:44;;;;;;;30.87;13.47;;;5.80;99.90;;;;;;5111590;27;20041;-84
2022/01/27 03:41:11;;;;;;;27.48;13.30;;;4.80;99.90;;;;;;5108879;27;20035;-84
2022/01/27 03:43:37;;;;;;;;;;;5.40;99.90;;;;;;5108376;27;20039;-84
2022/01/27 03:46:05;;;;;;;20.40;12.48;;;4.80;99.90;;;;;;5106635;27;19938;-84
2022/01/27 03:48:31;;;;;;;26.75;12.80;;;5.80;99.90;;;;;;5138180;27;20049;-84
2022/01/27 03:50:57;;;;;;;34.00;15.10;;;4.80;99.90;;;;;;5114637;27;20349;-85
2022/01/27 03:53:22;;;;;;;24.87;12.73;;;5.40;99.90;;;;;;5110832;27;20291;-84
2022/01/27 03:55:48;;;;;;;31.40;13.80;;;4.80;99.90;;;;;;5086512;27;20049;-85
2022/01/27 03:58:14;;;;;;;26.63;13.43;;;4.80;99.90;;;;;;5095147;27;20129;-83
2022/01/27 04:00:40;;;;;;;22.20;12.90;;;4.80;99.90;;;;;;5085993;27;20047;-84
2022/01/27 04:03:09;;;;;;;24.23;13.02;;;4.80;99.90;;;;;;5129019;27;20117;-83
2022/01/27 04:05:39;;;;;;;25.13;14.18;;;6.10;99.90;;;;;;5100446;27;20480;-84
2022/01/27 04:08:07;;;;;;;20.63;11.82;;;4.80;99.90;;;;;;5108187;27;20035;-84
2022/01/27 04:10:34;;;;;;;30.48;15.13;;;4.80;99.90;;;;;;5117488;27;20130;-85
2022/01/27 04:13:00;;;;;;;;;;;4.80;99.90;;;;;;5114504;27;20035;-84
2022/01/27 04:15:26;;;;;;;22.48;13.68;;;5.40;99.90;;;;;;5091016;27;20273;-84
2022/01/27 04:17:52;;;;;;;24.73;12.93;;;5.50;99.90;;;;;;5107466;27;20035;-84
2022/01/27 04:20:18;;;;;;;33.38;13.27;;;4.80;99.90;;;;;;5133049;27;20039;-84
2022/01/27 04:22:44;;;;;;;20.08;11.00;;;5.70;99.90;;;;;;5098868;27;20487;-84
2022/01/27 04:25:12;;;;;;;24.57;13.10;;;4.90;99.90;;;;;;5106285;27;20035;-84
2022/01/27 04:27:41;;;;;;;30.67;15.32;;;4.90;99.90;;;;;;5108734;27;20039;-84
2022/01/27 04:30:14;;;;;;;27.90;11.68;;;4.80;99.90;;;;;;5088987;27;20039;-84
2022/01/27 04:32:45;;;;;;;20.83;11.63;;;4.90;99.90;;;;;;5110019;27;20031;-84
2022/01/27 04:35:15;;;;;;;26.35;13.60;;;4.90;99.90;;;;;;5095104;27;20087;-85
2022/01/27 04:37:52;;;;;;;23.77;12.43;;;5.40;99.90;;;;;;5110135;27;20050;-85
2022/01/27 04:40:25;;;;;;;23.98;12.95;;;6.00;99.90;;;;;;5103378;27;20088;-84
2022/01/27 04:42:59;;;;;;;25.70;14.25;;;4.90;99.90;;;;;;5086182;27;20076;-84
2022/01/27 04:45:31;;;;;;;26.90;11.52;;;4.90;99.90;;;;;;5119628;27;20049;-84
2022/01/27 04:48:07;;;;;;;23.08;12.60;;;4.90;99.90;;;;;;5111648;27;20113;-85
2022/01/27 04:50:33;;;;;;;23.52;12.35;;;4.90;99.90;;;;;;5117866;27;20041;-84
2022/01/27 04:53:00;;;;;;;30.17;13.83;;;4.90;99.90;;;;;;5120132;27;20410;-83
2022/01/27 04:55:26;;;;;;;24.75;11.65;;;6.10;99.90;;;;;;5115526;27;20051;-83
2022/01/27 04:58:07;;;;;;;36.20;14.17;;;6.20;99.90;;;;;;5118550;27;20037;-85
2022/01/27 05:00:33;;;;;;;23.80;11.77;;;5.00;99.90;;;;;;5110052;27;20035;-84
2022/01/27 05:03:01;;;;;;;26.07;13.53;;;6.00;99.90;;;;;;5110896;27;20038;-84
2022/01/27 05:05:26;;;;;;;20.27;12.73;;;5.00;99.90;;;;;;5093819;27;20042;-84
2022/01/27 05:07:58;;;;;;;21.33;13.00;;;5.00;99.90;;;;;;5097246;27;20037;-84
2022/01/27 05:10:32;;;;;;;27.88;12.13;;;5.00;99.90;;;;;;5098727;27;20129;-84
2022/01/27 05:13:11;;;;;;;21.23;11.10;;;5.00;99.90;;;;;;5089714;27;20027;-84
2022/01/27 05:15:43;;;;;;;21.42;12.45;;;5.00;99.90;;;;;;5083177;27;20054;-85
2022/01/27 05:18:10;;;;;;;25.20;14.15;;;4.30;99.90;;;;;;5087593;27;20042;-87
2022/01/27 05:20:35;;;;;;;28.90;13.48;;;5.00;99.90;;;;;;5088144;27;20133;-84
2022/01/27 05:23:01;;;;;;;22.30;13.47;;;5.00;99.90;;;;;;5110222;27;20062;-84
2022/01/27 05:25:27;;;;;;;21.00;13.13;;;5.00;99.90;;;;;;5119288;27;20034;-84
2022/01/27 05:27:55;;;;;;;20.03;10.33;;;5.10;99.90;;;;;;5108344;27;20056;-85
2022/01/27 05:30:21;;;;;;;20.33;11.77;;;6.30;99.90;;;;;;5127686;27;20050;-84
2022/01/27 05:32:47;;;;;;;18.97;10.70;;;4.40;99.90;;;;;;5100461;27;20384;-84
2022/01/27 05:35:13;;;;;;;23.13;11.60;;;5.20;99.90;;;;;;5105400;27;20118;-84
2022/01/27 05:37:39;;;;;;;21.20;11.57;;;5.20;99.90;;;;;;5098204;27;20043;-84
2022/01/27 05:40:05;;;;;;;20.40;11.67;;;5.20;99.90;;;;;;5098855;27;20038;-84
2022/01/27 05:42:31;;;;;;;21.08;10.98;;;5.30;99.90;;;;;;5098671;27;20118;-84
2022/01/27 05:44:57;;;;;;;20.40;11.67;;;6.40;99.90;;;;;;5098296;27;20176;-85
2022/01/27 05:47:22;;;;;;;22.57;12.00;;;5.20;99.90;;;;;;5106467;27;20415;-85
2022/01/27 05:49:48;;;;;;;20.10;12.43;;;5.20;99.90;;;;;;5098170;27;20039;-85
2022/01/27 05:52:14;;;;;;;26.50;14.27;;;5.20;99.90;;;;;;5098173;27;20031;-85
2022/01/27 05:54:40;;;;;;;22.80;12.67;;;5.20;99.90;;;;;;5090145;27;20212;-86
2022/01/27 05:57:08;;;;;;;18.77;11.87;;;5.10;99.90;;;;;;5097497;27;20043;-86
2022/01/27 05:59:36;;;;;;;17.83;11.05;;;5.10;99.90;;;;;;5098574;27;20078;-85
2022/01/27 06:02:02;;;;;;;22.20;11.40;;;5.10;99.90;;;;;;5098533;27;20047;-85
2022/01/27 06:04:28;;;;;;;24.40;12.40;;;5.10;99.90;;;;;;5105717;27;20353;-85
2022/01/27 06:06:53;;;;;;;19.30;11.10;;;5.10;99.90;;;;;;5075108;27;20043;-86
2022/01/27 06:09:19;;;;;;;22.47;10.93;;;5.30;99.90;;;;;;5126514;27;20031;-87
2022/01/27 06:11:45;;;;;;;21.47;11.87;;;5.10;99.90;;;;;;5108348;27;20075;-87
2022/01/27 06:14:11;;;;;;;19.47;10.40;;;6.10;99.90;;;;;;5075330;28;20134;-87
2022/01/27 06:16:39;;;;;;;29.73;11.95;;;5.10;99.90;;;;;;5094936;27;20051;-88
2022/01/27 06:19:07;;;;;;;17.97;11.17;;;5.10;99.90;;;;;;5098012;28;20434;-88
2022/01/27 06:21:35;;;;;;;21.38;12.13;;;5.20;99.90;;;;;;5114001;27;20045;-86
2022/01/27 06:24:02;;;;;;;19.48;11.00;;;6.20;99.90;;;;;;5106778;27;20382;-89
2022/01/27 06:26:29;;;;;;;;;;;6.30;99.90;;;;;;5098319;28;20043;-87
2022/01/27 06:28:56;;;;;;;18.25;10.35;;;4.80;99.90;;;;;;5097201;28;19926;-86
2022/01/27 06:31:22;;;;;;;20.55;11.90;;;5.10;99.90;;;;;;5114262;28;20422;-87
2022/01/27 06:33:48;;;;;;;20.73;11.80;;;5.10;99.90;;;;;;5077075;28;20118;-87
2022/01/27 06:36:14;;;;;;;21.90;10.97;;;5.50;99.90;;;;;;5098993;28;20058;-87
2022/01/27 06:38:40;;;;;;;24.35;11.68;;;5.20;99.90;;;;;;5106142;27;20077;-87
2022/01/27 06:41:06;;;;;;;21.23;10.60;;;5.20;99.90;;;;;;5088894;28;20035;-87
2022/01/27 06:43:32;;;;;;;17.23;10.15;;;5.20;99.90;;;;;;5081079;28;20070;-87
2022/01/27 06:45:58;;;;;;;18.33;9.90;;;5.20;99.90;;;;;;5105994;27;20122;-87
2022/01/27 06:48:26;;;;;;;22.90;11.03;;;5.20;99.90;;;;;;5097742;28;20043;-87
2022/01/27 06:50:55;;;;;;;19.70;10.93;;;4.20;99.90;;;;;;5114184;27;20115;-87
2022/01/27 06:53:23;;;;;;;17.63;10.80;;;5.20;99.90;;;;;;5098024;28;20126;-87
2022/01/27 06:55:49;;;;;;;15.75;9.93;;;5.20;99.90;;;;;;5077983;27;20039;-88
2022/01/27 06:58:15;;;;;;;22.88;11.80;;;6.00;99.90;;;;;;5135894;27;20038;-88
2022/01/27 07:00:41;;;;;;;17.67;9.00;;;5.30;99.90;;;;;;5092974;28;20461;-87
2022/01/27 07:03:07;;;;;;;16.70;9.35;;;5.30;99.90;;;;;;5134173;27;20062;-87
2022/01/27 07:05:34;;;;;;;15.97;9.70;;;5.30;99.90;;;;;;5111211;28;20082;-87
2022/01/27 07:08:02;;;;;;;20.65;9.45;;;5.40;99.90;;;;;;5097523;28;20039;-88
2022/01/27 07:10:28;;;;;;;19.10;9.73;;;5.40;99.90;;;;;;5097823;28;20066;-88
2022/01/27 07:12:54;;;;;;;21.63;10.37;;;5.40;99.90;;;;;;5096608;27;20097;-88
2022/01/27 07:15:20;;;;;;;12.60;8.47;;;5.50;99.90;;;;;;5113379;28;20043;-86
2022/01/27 07:17:47;;;;;;;14.87;9.07;;;5.50;99.90;;;;;;5097757;28;20508;-85
2022/01/27 07:20:13;;;;;;;;;;;5.50;99.90;;;;;;5102861;27;20062;-88
2022/01/27 07:23:20;;;;;;;16.55;7.10;;;5.60;99.90;;;;;;5109368;27;19961;-91
2022/01/27 07:25:53;;;;;;;13.07;8.40;;;5.50;99.90;;;;;;5100666;27;20043;-94
2022/01/27 07:28:19;;;;;;;11.85;7.80;;;5.80;99.90;;;;;;5098329;28;20096;-89
2022/01/27 07:31:03;;;;;;;14.73;7.60;;;5.70;99.90;;;;;;5073336;28;20047;-90
2022/01/27 07:33:35;;;;;;;12.55;7.65;;;6.80;99.90;;;;;;5099002;27;20050;-87
2022/01/27 07:36:00;;;;;;;16.60;7.68;;;5.60;99.90;;;;;;5111063;27;20393;-87
2022/01/27 07:38:27;;;;;;;13.83;8.27;;;5.70;99.90;;;;;;5100375;27;20047;-84
2022/01/27 07:40:55;;;;;;;13.70;7.68;;;5.70;99.90;;;;;;5103899;27;20091;-88
2022/01/27 07:43:21;;;;;;;12.95;6.38;;;5.70;99.90;;;;;;5101389;27;20050;-88
2022/01/27 07:45:47;;;;;;;14.50;7.03;;;5.70;99.90;;;;;;5109705;27;20031;-88
2022/01/27 07:48:18;;;;;;;10.82;6.05;;;5.80;99.90;;;;;;5128804;27;20084;-88
2022/01/27 07:50:55;;;;;;;11.57;6.88;;;5.00;99.90;;;;;;5112989;27;20054;-88
2022/01/27 07:53:33;;;;;;;12.48;7.18;;;5.80;99.90;;;;;;5121589;27;20492;-88
2022/01/27 07:56:02;;;;;;;7.95;5.68;;;5.90;99.90;;;;;;5102121;27;20103;-89
2022/01/27 07:58:31;;;;;;;11.20;6.90;;;5.80;99.90;;;;;;5110176;27;20054;-87
2022/01/27 08:01:08;;;;;;;9.38;5.85;;;5.90;99.90;;;;;;5102681;27;20386;-88
2022/01/27 08:03:38;;;;;;;16.45;8.27;;;5.80;99.90;;;;;;5122664;27;20488;-88
2022/01/27 08:06:05;;;;;;;14.95;8.70;;;5.90;99.90;;;;;;5124750;27;20488;-87
2022/01/27 08:08:31;;;;;;;15.68;8.82;;;5.90;99.90;;;;;;5126210;27;20035;-88
2022/01/27 08:11:00;;;;;;;18.70;9.13;;;5.90;99.90;;;;;;5110147;27;20131;-88
2022/01/27 08:13:28;;;;;;;18.75;8.95;;;5.00;99.90;;;;;;5107737;27;20137;-87
2022/01/27 08:15:54;;;;;;;17.30;8.32;;;7.30;99.90;;;;;;5105972;27;20038;-88
2022/01/27 08:18:23;;;;;;;15.47;8.70;;;7.00;99.90;;;;;;5102990;27;20092;-87
2022/01/27 08:20:50;;;;;;;20.85;9.10;;;6.10;99.90;;;;;;5114443;27;20315;-84
2022/01/27 08:23:16;;;;;;;24.13;8.63;;;6.10;99.90;;;;;;5116123;27;20407;-87
2022/01/27 08:25:43;;;;;;;26.95;8.73;;;6.10;99.90;;;;;;5102774;27;20039;-85
2022/01/27 08:28:21;;;;;;;15.75;9.38;;;6.20;99.90;;;;;;5101753;27;20485;-85
2022/01/27 08:30:50;;;;;;;24.35;10.40;;;6.20;99.90;;;;;;5099007;27;20054;-85
2022/01/27 08:33:18;;;;;;;14.75;9.63;;;6.20;99.90;;;;;;5089499;27;20035;-84
2022/01/27 08:35:44;;;;;;;18.75;10.20;;;6.20;99.90;;;;;;5113933;27;20117;-85
2022/01/27 08:38:10;;;;;;;18.90;9.93;;;6.20;99.90;;;;;;5130801;27;20031;-85
2022/01/27 08:40:36;;;;;;;19.13;10.17;;;6.30;99.90;;;;;;5101201;27;20364;-85
2022/01/27 08:43:04;;;;;;;31.08;10.20;;;6.40;99.90;;;;;;5126126;27;20047;-85
2022/01/27 08:45:30;;;;;;;19.95;8.32;;;6.40;99.90;;;;;;5102291;27;20114;-84
2022/01/27 08:47:58;;;;;;;18.53;8.17;;;7.40;99.90;;;;;;5104050;27;20085;-83
2022/01/27 08:50:24;;;;;;;13.00;8.48;;;6.50;99.90;;;;;;5121738;27;20043;-86
2022/01/27 08:52:51;;;;;;;16.63;8.68;;;6.60;99.90;;;;;;5123898;27;20555;-85
2022/01/27 08:55:17;;;;;;;13.80;8.35;;;6.60;99.90;;;;;;5097511;27;20039;-86
2022/01/27 08:57:43;;;;;;;14.68;9.05;;;6.70;99.90;;;;;;5085218;27;20047;-85
2022/01/27 09:00:12;;;;;;;22.90;9.00;;;6.60;99.90;;;;;;5097763;27;20046;-87
2022/01/27 09:02:38;;;;;;;14.75;6.60;;;7.20;99.90;;;;;;5098412;27;20184;-86
2022/01/27 09:05:04;;;;;;;10.10;7.30;;;6.70;99.90;;;;;;5098391;27;20043;-85
2022/01/27 09:07:34;;;;;;;23.98;8.40;;;6.70;99.90;;;;;;5122064;27;20394;-85
2022/01/27 09:10:00;;;;;;;14.98;7.63;;;6.70;99.90;;;;;;5093828;27;20039;-85
2022/01/27 09:12:25;;;;;;;19.70;7.47;;;6.80;99.90;;;;;;5114971;27;20500;-85
2022/01/27 09:14:51;;;;;;;13.70;7.23;;;6.70;99.90;;;;;;5096916;27;20065;-85
2022/01/27 09:17:17;;;;;;;17.00;7.00;;;6.80;99.90;;;;;;5080752;27;20615;-84
2022/01/27 09:19:46;;;;;;;11.80;7.47;;;6.80;99.90;;;;;;5098136;27;20078;-85
2022/01/27 09:22:15;;;;;;;14.18;6.25;;;6.80;99.90;;;;;;5081046;27;20516;-85
2022/01/27 09:24:56;;;;;;;14.50;6.18;;;7.10;99.90;;;;;;5097640;27;20047;-90
2022/01/27 09:27:24;;;;;;;13.75;6.47;;;6.90;99.90;;;;;;5114513;27;20054;-86
2022/01/27 09:29:50;;;;;;;17.45;6.90;;;6.90;99.90;;;;;;5115232;27;20062;-86
2022/01/27 09:32:16;;;;;;;9.68;6.35;;;6.90;99.90;;;;;;5097316;27;20461;-86
2022/01/27 09:34:43;;;;;;;12.97;6.87;;;7.00;99.90;;;;;;5114628;27;20038;-85
2022/01/27 09:37:10;;;;;;;14.07;6.05;;;7.00;99.90;;;;;;5097730;27;20134;-86
2022/01/27 09:39:36;;;;;;;12.85;5.60;;;7.10;99.90;;;;;;5097652;27;20039;-88
2022/01/27 09:42:04;;;;;;;13.55;5.20;;;7.10;99.90;;;;;;5114522;27;20087;-86
2022/01/27 09:44:32;;;;;;;11.05;4.95;;;7.10;99.90;;;;;;5114360;27;20042;-86
2022/01/27 09:47:07;;;;;;;10.27;4.28;;;7.20;99.90;;;;;;5106282;27;20076;-87
2022/01/27 09:52:00;;;;;;;9.02;4.78;;;7.30;99.90;;;;;;5114225;27;20134;-85
2022/01/27 09:54:27;;;;;;;18.00;5.00;;;7.30;99.90;;;;;;5095653;27;20127;-86
2022/01/27 09:56:56;;;;;;;13.98;5.57;;;7.40;99.90;;;;;;5096839;27;20049;-86
2022/01/27 09:59:23;;;;;;;9.35;3.85;;;7.40;99.90;;;;;;5114565;27;20104;-87
2022/01/27 10:02:05;;;;;;;7.43;3.58;;;7.40;99.90;;;;;;5079466;27;20089;-85
2022/01/27 10:04:57;;;;;;;11.73;4.55;;;7.50;99.90;;;;;;5120438;27;20050;-88
2022/01/27 10:07:36;;;;;;;8.25;4.30;;;7.50;99.90;;;;;;5102893;27;20378;-85
2022/01/27 10:10:12;;;;;;;18.02;4.78;;;6.50;99.90;;;;;;5095098;27;20074;-86
2022/01/27 10:12:43;;;;;;;8.95;4.82;;;7.60;99.90;;;;;;5105966;27;20039;-85
2022/01/27 10:15:17;;;;;;;5.57;4.25;;;7.60;99.90;;;;;;5100130;27;20051;-85
2022/01/27 10:18:02;;;;;;;10.23;4.10;;;7.60;99.90;;;;;;5092793;27;20047;-84
2022/01/27 10:20:27;;;;;;;9.70;4.25;;;7.70;99.90;;;;;;5103575;27;20057;-85
2022/01/27 10:23:08;;;;;;;8.63;4.00;;;7.70;99.90;;;;;;5084196;27;20050;-85
2022/01/27 10:25:35;;;;;;;9.77;3.75;;;7.70;99.90;;;;;;5096300;27;20043;-85
2022/01/27 10:28:11;;;;;;;14.43;4.47;;;7.80;99.90;;;;;;5098662;27;20047;-86
2022/01/27 10:30:40;;;;;;;13.93;4.60;;;7.80;99.90;;;;;;5124459;27;20174;-85
2022/01/27 10:33:12;;;;;;;8.93;3.83;;;7.80;99.90;;;;;;5100091;28;20043;-85
2022/01/27 10:35:38;;;;;;;14.80;3.97;;;7.80;99.90;;;;;;5103887;27;20046;-84
2022/01/27 10:38:06;;;;;;;7.63;4.15;;;7.80;99.90;;;;;;5107817;27;20122;-85
2022/01/27 10:40:41;;;;;;;8.13;3.72;;;7.80;99.90;;;;;;5102891;27;20535;-83
2022/01/27 10:43:11;;;;;;;11.65;4.32;;;7.80;99.90;;;;;;5120827;27;20086;-84
2022/01/27 10:46:11;;;;;;;10.80;3.67;;;7.80;99.90;;;;;;5130053;27;20054;-83
2022/01/27 10:48:48;;;;;;;12.15;4.28;;;7.90;99.90;;;;;;5119801;27;20062;-82
2022/01/27 10:51:19;;;;;;;;;;;7.90;99.90;;;;;;5100564;27;20062;-83
2022/01/27 10:53:46;;;;;;;7.22;3.88;;;7.90;99.90;;;;;;5101994;27;19946;-83
2022/01/27 10:56:17;;;;;;;;;;;7.90;99.90;;;;;;5110676;27;20043;-83
2022/01/27 10:58:43;;;;;;;6.00;3.25;;;7.90;99.90;;;;;;5131528;27;19920;-84
2022/01/27 11:01:09;;;;;;;6.10;3.03;;;7.90;99.90;;;;;;5122048;28;20508;-82
2022/01/27 11:03:36;;;;;;;9.77;4.13;;;8.00;99.90;;;;;;5080022;27;20054;-83
2022/01/27 11:06:09;;;;;;;13.68;3.05;;;8.00;99.90;;;;;;5104786;27;20043;-83
2022/01/27 11:08:37;;;;;;;9.93;3.40;;;7.90;99.90;;;;;;5135151;27;20058;-83
2022/01/27 11:11:04;;;;;;;7.38;3.75;;;8.00;99.90;;;;;;5087736;27;20039;-81
2022/01/27 11:13:33;;;;;;;10.40;3.33;;;8.00;99.90;;;;;;5124383;27;20039;-83
2022/01/27 11:15:59;;;;;;;9.68;2.78;;;8.00;99.90;;;;;;5125977;27;20047;-82
2022/01/27 11:18:27;;;;;;;;;;;8.10;99.90;;;;;;5129361;27;20050;-87
2022/01/27 11:23:46;;;;;;;7.65;4.65;;;8.00;99.90;;;;;;5118229;27;20370;-83
2022/01/27 11:26:21;;;;;;;12.60;3.92;;;7.80;99.90;;;;;;5122339;27;20054;-84
2022/01/27 11:28:47;;;;;;;11.80;3.60;;;8.00;99.90;;;;;;5106150;27;20050;-83
2022/01/27 11:31:39;;;;;;;7.65;2.90;;;8.00;99.90;;;;;;5117593;27;20503;-82
2022/01/27 11:34:10;;;;;;;11.82;3.67;;;8.00;99.90;;;;;;5118637;27;20129;-83
2022/01/27 11:36:38;;;;;;;10.05;2.80;;;8.00;99.90;;;;;;5121030;27;20504;-84
2022/01/27 11:39:20;;;;;;;7.07;3.47;;;7.40;99.90;;;;;;5094773;27;20050;-83
2022/01/27 11:41:53;;;;;;;6.40;3.45;;;8.00;99.90;;;;;;5084860;27;20492;-82
2022/01/27 11:44:36;;;;;;;9.00;2.95;;;8.10;99.90;;;;;;5105500;27;20488;-84
2022/01/27 11:47:13;;;;;;;8.60;3.45;;;8.10;99.90;;;;;;5126385;27;20049;-83
2022/01/27 11:50:12;;;;;;;6.43;2.88;;;8.10;99.90;;;;;;5105303;27;20046;-84
2022/01/27 11:53:15;;;;;;;11.50;3.15;;;8.80;99.90;;;;;;5077041;27;20055;-83
2022/01/27 11:55:46;;;;;;;6.63;2.83;;;8.10;99.90;;;;;;5124278;27;20078;-82
2022/01/27 11:58:14;;;;;;;11.02;2.45;;;8.00;99.90;;;;;;5125030;27;20103;-82
2022/01/27 12:00:40;;;;;;;6.82;2.65;;;8.10;99.90;;;;;;5121638;27;20122;-84
2022/01/27 12:03:13;;;;;;;5.95;2.90;;;8.20;99.90;;;;;;5098908;27;20083;-83
2022/01/27 12:05:45;;;;;;;5.10;2.83;;;8.20;99.90;;;;;;5089766;27;20039;-82
2022/01/27 12:08:19;;;;;;;6.20;2.63;;;8.20;99.90;;;;;;5102278;27;20051;-85
2022/01/27 12:10:53;;;;;;;8.18;3.00;;;8.20;99.90;;;;;;5107609;27;20378;-86
2022/01/27 12:13:49;;;;;;;7.80;3.13;;;8.40;99.90;;;;;;5115858;27;20477;-86
2022/01/27 12:19:00;;;;;;;6.78;3.50;;;8.30;99.90;;;;;;5127472;27;20073;-88
2022/01/27 12:22:15;;;;;;;7.53;3.55;;;8.30;99.90;;;;;;5125457;27;20555;-87
2022/01/27 12:24:58;;;;;;;4.57;2.85;;;8.30;99.90;;;;;;5054749;28;20060;-86
2022/01/27 12:27:26;;;;;;;4.55;2.50;;;8.30;99.90;;;;;;5018299;28;20352;-87
2022/01/27 12:29:53;;;;;;;7.22;2.80;;;8.30;99.90;;;;;;5090106;27;20139;-87
2022/01/27 12:32:28;;;;;;;9.98;3.30;;;8.30;99.90;;;;;;5104882;27;20041;-86
2022/01/27 12:34:57;;;;;;;3.47;2.25;;;8.30;99.90;;;;;;5126985;27;20047;-85
2022/01/27 12:37:45;;;;;;;11.40;2.90;;;8.20;99.90;;;;;;5096390;27;20064;-86
2022/01/27 12:40:19;;;;;;;8.30;2.97;;;8.30;99.90;;;;;;5101937;27;20382;-86
2022/01/27 12:42:59;;;;;;;17.27;3.03;;;8.30;99.90;;;;;;5109054;27;20051;-86
2022/01/27 12:45:28;;;;;;;7.45;2.42;;;8.30;99.90;;;;;;5108795;27;20497;-86
2022/01/27 12:47:59;;;;;;;9.50;2.80;;;8.30;99.90;;;;;;5104747;27;20130;-87
2022/01/27 12:50:25;;;;;;;9.55;3.17;;;8.30;99.90;;;;;;5116026;27;20493;-86
2022/01/27 12:52:57;;;;;;;10.90;2.97;;;8.20;99.90;;;;;;5116521;27;20070;-86
2022/01/27 12:55:33;;;;;;;8.00;3.08;;;8.20;99.90;;;;;;5099517;27;20046;-86
2022/01/27 12:58:10;;;;;;;7.60;2.83;;;8.20;99.90;;;;;;5115869;27;20096;-86
2022/01/27 13:00:38;;;;;;;;;;;8.30;99.90;;;;;;5109562;27;20038;-87
2022/01/27 13:03:04;;;;;;;11.20;3.72;;;8.60;99.90;;;;;;5120697;27;19985;-87
2022/01/27 13:05:35;;;;;;;8.13;2.35;;;8.20;99.90;;;;;;5115550;27;20039;-87
2022/01/27 13:08:07;;;;;;;5.15;1.98;;;8.20;99.90;;;;;;5125540;27;20046;-85
2022/01/27 13:10:33;;;;;;;7.75;2.85;;;8.00;99.90;;;;;;5119147;27;20405;-87
2022/01/27 13:13:13;;;;;;;6.80;2.58;;;8.30;99.90;;;;;;5090108;27;20472;-87
2022/01/27 13:15:39;;;;;;;7.88;2.90;;;8.20;99.90;;;;;;5124596;27;20063;-87
2022/01/27 13:18:25;;;;;;;11.80;3.28;;;8.30;99.90;;;;;;5127737;27;20051;-86
2022/01/27 13:20:55;;;;;;;10.57;4.47;;;8.30;99.90;;;;;;5122148;27;20042;-86
2022/01/27 13:25:50;;;;;;;10.57;3.00;;;8.30;99.90;;;;;;5120334;27;20126;-86
2022/01/27 13:28:22;;;;;;;6.35;2.58;;;8.30;99.90;;;;;;5108776;27;20085;-86
2022/01/27 13:30:51;;;;;;;5.40;2.30;;;7.80;99.90;;;;;;5107739;27;20079;-86
2022/01/27 13:33:19;;;;;;;8.75;3.60;;;8.30;99.90;;;;;;5113798;27;20035;-86
2022/01/27 13:35:47;;;;;;;5.95;2.70;;;8.30;99.90;;;;;;5103421;27;20051;-85
2022/01/27 13:38:21;;;;;;;13.82;3.50;;;8.30;99.90;;;;;;5094702;27;20081;-86
2022/01/27 13:43:40;;;;;;;9.18;3.13;;;8.40;99.90;;;;;;5118414;27;20047;-86
2022/01/27 13:46:11;;;;;;;6.43;3.28;;;8.30;99.90;;;;;;5116881;27;20081;-86
2022/01/27 13:48:45;;;;;;;10.73;2.83;;;8.40;99.90;;;;;;5105154;27;20042;-85
2022/01/27 13:51:25;;;;;;;9.88;3.10;;;8.30;99.90;;;;;;5103642;27;20503;-85
2022/01/27 13:54:04;;;;;;;15.85;3.10;;;8.30;99.90;;;;;;5122219;27;20293;-87